AFL615 UDYZ-URKK
Flight info
| Callsign | AFL615 |
|---|---|
| Flight time | 1h 11m |
| Altitude | 36000 |
| Route | TIBLO T918 OGEVI DCT IBERI DCT BANUT/K0833F360 DCT PROZR DCT MOBIT/K0795F290 B949 SM |
| Aircraft | A321/M-SDE3FGHIRWY/LB1 |
Departure
| Time | 2026-05-07 08:29 |
|---|---|
| Airport | Zvartnots International Airport (UDYZ) |
Arrival
| Time | 2026-05-07 09:40 |
|---|---|
| Airport | Krasnodar Pashkovsky International Airport (URKK) |
| Time | Latitude | Longitude | Altitude | Speed | Heading |
|---|---|---|---|---|---|
| 2026-05-07 08:00 | 40.15089 | 44.40005 | 2838 ft | 0 kts | 359° |
| 2026-05-07 08:23 | 40.15066 | 44.40005 | 2837 ft | 4 kts | 360° |
| 2026-05-07 08:23 | 40.15044 | 44.40005 | 2837 ft | 4 kts | 3° |
| 2026-05-07 08:24 | 40.15018 | 44.39999 | 2837 ft | 4 kts | 22° |
| 2026-05-07 08:24 | 40.14996 | 44.39982 | 2837 ft | 4 kts | 52° |
| 2026-05-07 08:24 | 40.14986 | 44.39952 | 2837 ft | 3 kts | 88° |
| 2026-05-07 08:24 | 40.14986 | 44.39947 | 2837 ft | 0 kts | 89° |
| 2026-05-07 08:26 | 40.14986 | 44.39976 | 2837 ft | 9 kts | 89° |
| 2026-05-07 08:27 | 40.14931 | 44.40032 | 2837 ft | 11 kts | 178° |
| 2026-05-07 08:27 | 40.14860 | 44.40033 | 2837 ft | 10 kts | 179° |
| 2026-05-07 08:27 | 40.14795 | 44.40034 | 2836 ft | 9 kts | 180° |
| 2026-05-07 08:27 | 40.14746 | 44.40011 | 2837 ft | 7 kts | 223° |
| 2026-05-07 08:28 | 40.14738 | 44.39986 | 2836 ft | 0 kts | 262° |
| 2026-05-07 08:28 | 40.14733 | 44.39940 | 2836 ft | 29 kts | 264° |
| 2026-05-07 08:29 | 40.14732 | 44.39325 | 2830 ft | 103 kts | 270° |
| 2026-05-07 08:29 | 40.14727 | 44.38132 | 2831 ft | 158 kts | 269° |
| 2026-05-07 08:29 | 40.14715 | 44.36642 | 3362 ft | 162 kts | 270° |
| 2026-05-07 08:29 | 40.14712 | 44.35168 | 4032 ft | 163 kts | 271° |
| 2026-05-07 08:30 | 40.15025 | 44.33670 | 4152 ft | 185 kts | 305° |
| 2026-05-07 08:30 | 40.15810 | 44.32252 | 4342 ft | 202 kts | 305° |
| 2026-05-07 08:30 | 40.16639 | 44.30662 | 4498 ft | 221 kts | 303° |
| 2026-05-07 08:30 | 40.17498 | 44.28964 | 4849 ft | 232 kts | 303° |
| 2026-05-07 08:31 | 40.18382 | 44.27203 | 5568 ft | 231 kts | 303° |
| 2026-05-07 08:31 | 40.19264 | 44.25438 | 6303 ft | 232 kts | 303° |
| 2026-05-07 08:31 | 40.20150 | 44.23662 | 6996 ft | 234 kts | 303° |
| 2026-05-07 08:31 | 40.21043 | 44.21871 | 7657 ft | 237 kts | 303° |
| 2026-05-07 08:32 | 40.21999 | 44.20024 | 8007 ft | 256 kts | 304° |
| 2026-05-07 08:32 | 40.23068 | 44.18027 | 8279 ft | 278 kts | 304° |
| 2026-05-07 08:32 | 40.24199 | 44.15930 | 8831 ft | 286 kts | 305° |
| 2026-05-07 08:32 | 40.25353 | 44.13789 | 9518 ft | 289 kts | 304° |
| 2026-05-07 08:33 | 40.26519 | 44.11622 | 10181 ft | 295 kts | 304° |
| 2026-05-07 08:33 | 40.27730 | 44.09369 | 10362 ft | 318 kts | 304° |
| 2026-05-07 08:33 | 40.29047 | 44.06915 | 10548 ft | 338 kts | 304° |
| 2026-05-07 08:33 | 40.30414 | 44.04366 | 11114 ft | 345 kts | 304° |
| 2026-05-07 08:34 | 40.31801 | 44.01778 | 11775 ft | 349 kts | 304° |
| 2026-05-07 08:34 | 40.33199 | 43.99162 | 12449 ft | 352 kts | 304° |
| 2026-05-07 08:34 | 40.34605 | 43.96524 | 13122 ft | 355 kts | 304° |
| 2026-05-07 08:34 | 40.36034 | 43.93871 | 13778 ft | 358 kts | 306° |
| 2026-05-07 08:35 | 40.37775 | 43.91511 | 14400 ft | 363 kts | 320° |
| 2026-05-07 08:35 | 40.39919 | 43.89734 | 15009 ft | 368 kts | 334° |
| 2026-05-07 08:35 | 40.42363 | 43.88673 | 15614 ft | 373 kts | 348° |
| 2026-05-07 08:35 | 40.44918 | 43.88281 | 16191 ft | 377 kts | 354° |
| 2026-05-07 08:36 | 40.47538 | 43.87957 | 16783 ft | 380 kts | 354° |
| 2026-05-07 08:36 | 40.50180 | 43.87629 | 17348 ft | 383 kts | 353° |
| 2026-05-07 08:36 | 40.52837 | 43.87293 | 17907 ft | 385 kts | 353° |
| 2026-05-07 08:36 | 40.55515 | 43.86948 | 18440 ft | 388 kts | 353° |
| 2026-05-07 08:37 | 40.58217 | 43.86601 | 18956 ft | 392 kts | 353° |
| 2026-05-07 08:37 | 40.60938 | 43.86257 | 19468 ft | 395 kts | 353° |
| 2026-05-07 08:37 | 40.63680 | 43.85910 | 19965 ft | 398 kts | 353° |
| 2026-05-07 08:37 | 40.66406 | 43.85564 | 20432 ft | 401 kts | 353° |
| 2026-05-07 08:38 | 40.69194 | 43.85207 | 20910 ft | 403 kts | 353° |
| 2026-05-07 08:38 | 40.71995 | 43.84846 | 21381 ft | 406 kts | 353° |
| 2026-05-07 08:38 | 40.74820 | 43.84477 | 21833 ft | 409 kts | 352° |
| 2026-05-07 08:38 | 40.77656 | 43.84078 | 22276 ft | 412 kts | 352° |
| 2026-05-07 08:39 | 40.80512 | 43.83653 | 22709 ft | 415 kts | 352° |
| 2026-05-07 08:39 | 40.83386 | 43.83216 | 23139 ft | 417 kts | 352° |
| 2026-05-07 08:39 | 40.86279 | 43.82775 | 23553 ft | 419 kts | 352° |
| 2026-05-07 08:39 | 40.89147 | 43.82335 | 23948 ft | 422 kts | 352° |
| 2026-05-07 08:40 | 40.92072 | 43.81891 | 24355 ft | 425 kts | 352° |
| 2026-05-07 08:40 | 40.95018 | 43.81447 | 24758 ft | 427 kts | 352° |
| 2026-05-07 08:40 | 40.97977 | 43.81004 | 25144 ft | 430 kts | 352° |
| 2026-05-07 08:40 | 41.00959 | 43.80560 | 25514 ft | 432 kts | 352° |
| 2026-05-07 08:41 | 41.03956 | 43.80116 | 25878 ft | 435 kts | 352° |
| 2026-05-07 08:41 | 41.06963 | 43.79611 | 26228 ft | 436 kts | 347° |
| 2026-05-07 08:41 | 41.09878 | 43.78520 | 26566 ft | 436 kts | 336° |
| 2026-05-07 08:41 | 41.12592 | 43.76759 | 26896 ft | 435 kts | 326° |
| 2026-05-07 08:42 | 41.15025 | 43.74396 | 27214 ft | 434 kts | 316° |
| 2026-05-07 08:42 | 41.17082 | 43.71547 | 27526 ft | 433 kts | 306° |
| 2026-05-07 08:42 | 41.18815 | 43.68280 | 27834 ft | 434 kts | 302° |
| 2026-05-07 08:42 | 41.20510 | 43.64954 | 28149 ft | 436 kts | 302° |
| 2026-05-07 08:43 | 41.22213 | 43.61620 | 28460 ft | 438 kts | 302° |
| 2026-05-07 08:43 | 41.23926 | 43.58265 | 28762 ft | 440 kts | 302° |
| 2026-05-07 08:43 | 41.25647 | 43.54896 | 29066 ft | 441 kts | 302° |
| 2026-05-07 08:43 | 41.27376 | 43.51512 | 29339 ft | 443 kts | 302° |
| 2026-05-07 08:44 | 41.29109 | 43.48114 | 29615 ft | 445 kts | 301° |
| 2026-05-07 08:44 | 41.30821 | 43.44752 | 29873 ft | 447 kts | 301° |
| 2026-05-07 08:44 | 41.32564 | 43.41317 | 30149 ft | 448 kts | 301° |
| 2026-05-07 08:44 | 41.34307 | 43.37878 | 30407 ft | 450 kts | 301° |
| 2026-05-07 08:45 | 41.36064 | 43.34412 | 30656 ft | 452 kts | 301° |
| 2026-05-07 08:45 | 41.37821 | 43.30943 | 30994 ft | 452 kts | 301° |
| 2026-05-07 08:45 | 41.39574 | 43.27478 | 31371 ft | 451 kts | 301° |
| 2026-05-07 08:45 | 41.41326 | 43.24015 | 31731 ft | 450 kts | 301° |
| 2026-05-07 08:46 | 41.43072 | 43.20565 | 32072 ft | 449 kts | 301° |
| 2026-05-07 08:46 | 41.44817 | 43.17109 | 32401 ft | 449 kts | 301° |
| 2026-05-07 08:46 | 41.46553 | 43.13653 | 32723 ft | 449 kts | 301° |
| 2026-05-07 08:46 | 41.48284 | 43.10197 | 33054 ft | 448 kts | 301° |
| 2026-05-07 08:47 | 41.49994 | 43.06787 | 33358 ft | 448 kts | 301° |
| 2026-05-07 08:47 | 41.51728 | 43.03336 | 33664 ft | 448 kts | 301° |
| 2026-05-07 08:47 | 41.53462 | 42.99889 | 33966 ft | 447 kts | 301° |
| 2026-05-07 08:47 | 41.55196 | 42.96439 | 34268 ft | 447 kts | 301° |
| 2026-05-07 08:48 | 41.56922 | 42.92988 | 34554 ft | 447 kts | 301° |
| 2026-05-07 08:48 | 41.58643 | 42.89531 | 34818 ft | 447 kts | 301° |
| 2026-05-07 08:48 | 41.60361 | 42.86071 | 35086 ft | 447 kts | 301° |
| 2026-05-07 08:48 | 41.62081 | 42.82606 | 35347 ft | 447 kts | 301° |
| 2026-05-07 08:49 | 41.63805 | 42.79138 | 35588 ft | 448 kts | 301° |
| 2026-05-07 08:49 | 41.65506 | 42.75716 | 35811 ft | 448 kts | 301° |
| 2026-05-07 08:49 | 41.67230 | 42.72244 | 36032 ft | 449 kts | 301° |
| 2026-05-07 08:49 | 41.68958 | 42.68766 | 36166 ft | 449 kts | 302° |
| 2026-05-07 08:50 | 41.72402 | 42.61827 | 36188 ft | 446 kts | 302° |
| 2026-05-07 08:50 | 41.75831 | 42.54901 | 36187 ft | 446 kts | 302° |
| 2026-05-07 08:51 | 41.79227 | 42.48013 | 36195 ft | 446 kts | 302° |
| 2026-05-07 08:51 | 41.82637 | 42.41064 | 36202 ft | 446 kts | 302° |
| 2026-05-07 08:52 | 41.86048 | 42.34104 | 36202 ft | 447 kts | 302° |
| 2026-05-07 08:52 | 41.89458 | 42.27137 | 36204 ft | 446 kts | 302° |
| 2026-05-07 08:53 | 41.92864 | 42.20156 | 36204 ft | 447 kts | 302° |
| 2026-05-07 08:53 | 41.96245 | 42.13203 | 36204 ft | 447 kts | 302° |
| 2026-05-07 08:54 | 41.99644 | 42.06201 | 36205 ft | 447 kts | 302° |
| 2026-05-07 08:54 | 42.03049 | 41.99193 | 36207 ft | 448 kts | 302° |
| 2026-05-07 08:55 | 42.06453 | 41.92180 | 36208 ft | 448 kts | 302° |
| 2026-05-07 08:55 | 42.09847 | 41.85153 | 36209 ft | 448 kts | 301° |
| 2026-05-07 08:56 | 42.13207 | 41.78163 | 36211 ft | 448 kts | 301° |
| 2026-05-07 08:56 | 42.16581 | 41.71116 | 36213 ft | 448 kts | 302° |
| 2026-05-07 08:57 | 42.20011 | 41.64103 | 36217 ft | 448 kts | 302° |
| 2026-05-07 08:57 | 42.23462 | 41.57108 | 36214 ft | 448 kts | 302° |
| 2026-05-07 08:58 | 42.26872 | 41.50142 | 36213 ft | 448 kts | 302° |
| 2026-05-07 08:58 | 42.30290 | 41.43115 | 36212 ft | 447 kts | 302° |
| 2026-05-07 08:59 | 42.33702 | 41.36083 | 36210 ft | 448 kts | 302° |
| 2026-05-07 08:59 | 42.37118 | 41.29044 | 36209 ft | 448 kts | 302° |
| 2026-05-07 09:00 | 42.40506 | 41.22034 | 36209 ft | 448 kts | 302° |
| 2026-05-07 09:00 | 42.43911 | 41.14972 | 36211 ft | 448 kts | 302° |
| 2026-05-07 09:01 | 42.47311 | 41.07897 | 36213 ft | 448 kts | 302° |
| 2026-05-07 09:01 | 42.50710 | 41.00811 | 36215 ft | 449 kts | 302° |
| 2026-05-07 09:02 | 42.54083 | 40.93762 | 36215 ft | 449 kts | 302° |
| 2026-05-07 09:02 | 42.57483 | 40.86664 | 36216 ft | 449 kts | 302° |
| 2026-05-07 09:03 | 42.60874 | 40.79555 | 36217 ft | 449 kts | 302° |
| 2026-05-07 09:03 | 42.64254 | 40.72433 | 36217 ft | 449 kts | 302° |
| 2026-05-07 09:04 | 42.67606 | 40.65351 | 36222 ft | 449 kts | 302° |
| 2026-05-07 09:04 | 42.70984 | 40.58217 | 36226 ft | 449 kts | 302° |
| 2026-05-07 09:05 | 42.74360 | 40.51066 | 36226 ft | 449 kts | 302° |
| 2026-05-07 09:05 | 42.77731 | 40.43909 | 36232 ft | 449 kts | 302° |
| 2026-05-07 09:06 | 42.81080 | 40.36787 | 36234 ft | 449 kts | 302° |
| 2026-05-07 09:06 | 42.84443 | 40.29614 | 36235 ft | 449 kts | 302° |
| 2026-05-07 09:07 | 42.87801 | 40.22432 | 36235 ft | 449 kts | 302° |
| 2026-05-07 09:07 | 42.91153 | 40.15234 | 36237 ft | 450 kts | 302° |
| 2026-05-07 09:08 | 42.94509 | 40.08030 | 36240 ft | 450 kts | 302° |
| 2026-05-07 09:08 | 42.97834 | 40.00869 | 36244 ft | 450 kts | 302° |
| 2026-05-07 09:09 | 43.01087 | 39.93576 | 36242 ft | 450 kts | 300° |
| 2026-05-07 09:09 | 43.04102 | 39.86083 | 36241 ft | 450 kts | 298° |
| 2026-05-07 09:10 | 43.07061 | 39.78556 | 36240 ft | 450 kts | 298° |
| 2026-05-07 09:10 | 43.10050 | 39.71105 | 36241 ft | 449 kts | 299° |
| 2026-05-07 09:11 | 43.13083 | 39.63631 | 36240 ft | 450 kts | 299° |
| 2026-05-07 09:11 | 43.16108 | 39.56143 | 36240 ft | 449 kts | 299° |
| 2026-05-07 09:12 | 43.19124 | 39.48647 | 36239 ft | 449 kts | 299° |
| 2026-05-07 09:12 | 43.22131 | 39.41131 | 36239 ft | 449 kts | 299° |
| 2026-05-07 09:13 | 43.25113 | 39.33666 | 36238 ft | 450 kts | 299° |
| 2026-05-07 09:13 | 43.28121 | 39.26141 | 36239 ft | 450 kts | 299° |
| 2026-05-07 09:14 | 43.31134 | 39.18619 | 36235 ft | 449 kts | 302° |
| 2026-05-07 09:14 | 43.32983 | 39.15182 | 36234 ft | 448 kts | 314° |
| 2026-05-07 09:14 | 43.35290 | 39.12327 | 36230 ft | 446 kts | 325° |
| 2026-05-07 09:15 | 43.37918 | 39.10192 | 36229 ft | 445 kts | 336° |
| 2026-05-07 09:15 | 43.40828 | 39.08780 | 36228 ft | 444 kts | 348° |
| 2026-05-07 09:15 | 43.46947 | 39.07937 | 36226 ft | 443 kts | 357° |
| 2026-05-07 09:16 | 43.53110 | 39.07457 | 36223 ft | 444 kts | 357° |
| 2026-05-07 09:16 | 43.59281 | 39.06976 | 36222 ft | 444 kts | 357° |
| 2026-05-07 09:17 | 43.65418 | 39.06497 | 35990 ft | 445 kts | 357° |
| 2026-05-07 09:17 | 43.68509 | 39.06254 | 35742 ft | 445 kts | 357° |
| 2026-05-07 09:17 | 43.71595 | 39.06011 | 35486 ft | 444 kts | 357° |
| 2026-05-07 09:18 | 43.74677 | 39.05767 | 35205 ft | 444 kts | 357° |
| 2026-05-07 09:18 | 43.77773 | 39.05526 | 34426 ft | 448 kts | 358° |
| 2026-05-07 09:18 | 43.80899 | 39.05282 | 33550 ft | 453 kts | 358° |
| 2026-05-07 09:18 | 43.84039 | 39.05033 | 33038 ft | 449 kts | 358° |
| 2026-05-07 09:19 | 43.87147 | 39.04786 | 32461 ft | 446 kts | 358° |
| 2026-05-07 09:19 | 43.90239 | 39.04542 | 31891 ft | 444 kts | 358° |
| 2026-05-07 09:19 | 43.93272 | 39.04303 | 31334 ft | 441 kts | 358° |
| 2026-05-07 09:19 | 43.96327 | 39.04065 | 30772 ft | 438 kts | 358° |
| 2026-05-07 09:20 | 43.99355 | 39.03827 | 30217 ft | 434 kts | 358° |
| 2026-05-07 09:20 | 44.02358 | 39.03586 | 29671 ft | 431 kts | 358° |
| 2026-05-07 09:20 | 44.05338 | 39.03345 | 29121 ft | 427 kts | 358° |
| 2026-05-07 09:20 | 44.08294 | 39.03109 | 28580 ft | 424 kts | 358° |
| 2026-05-07 09:21 | 44.11225 | 39.02878 | 28050 ft | 420 kts | 358° |
| 2026-05-07 09:21 | 44.14123 | 39.02554 | 27530 ft | 417 kts | 353° |
| 2026-05-07 09:21 | 44.16952 | 39.01724 | 27028 ft | 414 kts | 348° |
| 2026-05-07 09:21 | 44.19707 | 39.00842 | 26531 ft | 410 kts | 348° |
| 2026-05-07 09:22 | 44.22470 | 38.99958 | 26044 ft | 405 kts | 348° |
| 2026-05-07 09:22 | 44.25204 | 38.99082 | 25575 ft | 401 kts | 348° |
| 2026-05-07 09:22 | 44.27909 | 38.98216 | 25108 ft | 396 kts | 348° |
| 2026-05-07 09:22 | 44.30580 | 38.97359 | 24652 ft | 392 kts | 348° |
| 2026-05-07 09:23 | 44.33222 | 38.96518 | 24198 ft | 387 kts | 348° |
| 2026-05-07 09:23 | 44.35825 | 38.95645 | 23746 ft | 382 kts | 347° |
| 2026-05-07 09:23 | 44.38386 | 38.94718 | 23293 ft | 379 kts | 346° |
| 2026-05-07 09:23 | 44.40919 | 38.93766 | 22838 ft | 375 kts | 346° |
| 2026-05-07 09:24 | 44.43425 | 38.92815 | 22383 ft | 371 kts | 346° |
| 2026-05-07 09:24 | 44.45874 | 38.91884 | 21937 ft | 368 kts | 346° |
| 2026-05-07 09:24 | 44.48336 | 38.90955 | 21476 ft | 365 kts | 346° |
| 2026-05-07 09:24 | 44.50788 | 38.90041 | 21017 ft | 363 kts | 346° |
| 2026-05-07 09:25 | 44.53220 | 38.89141 | 20573 ft | 360 kts | 346° |
| 2026-05-07 09:25 | 44.55637 | 38.88248 | 20098 ft | 358 kts | 346° |
| 2026-05-07 09:25 | 44.58033 | 38.87361 | 19658 ft | 355 kts | 346° |
| 2026-05-07 09:25 | 44.60418 | 38.86471 | 19210 ft | 354 kts | 346° |
| 2026-05-07 09:26 | 44.62786 | 38.85586 | 18767 ft | 351 kts | 346° |
| 2026-05-07 09:26 | 44.65104 | 38.84721 | 18330 ft | 349 kts | 346° |
| 2026-05-07 09:26 | 44.67442 | 38.83846 | 17898 ft | 346 kts | 346° |
| 2026-05-07 09:26 | 44.69758 | 38.82983 | 17466 ft | 344 kts | 346° |
| 2026-05-07 09:27 | 44.72063 | 38.82124 | 17044 ft | 341 kts | 346° |
| 2026-05-07 09:27 | 44.74386 | 38.81562 | 16622 ft | 337 kts | 359° |
| 2026-05-07 09:27 | 44.78852 | 38.83016 | 15791 ft | 330 kts | 30° |
| 2026-05-07 09:28 | 44.80700 | 38.84890 | 15375 ft | 327 kts | 44° |
| 2026-05-07 09:28 | 44.82260 | 38.87147 | 14967 ft | 325 kts | 46° |
| 2026-05-07 09:28 | 44.83818 | 38.89439 | 14548 ft | 323 kts | 46° |
| 2026-05-07 09:28 | 44.85370 | 38.91731 | 14129 ft | 322 kts | 46° |
| 2026-05-07 09:29 | 44.86912 | 38.94008 | 13721 ft | 320 kts | 48° |
| 2026-05-07 09:29 | 44.88214 | 38.96534 | 13315 ft | 318 kts | 60° |
| 2026-05-07 09:29 | 44.89122 | 38.99366 | 12907 ft | 316 kts | 68° |
| 2026-05-07 09:29 | 44.89924 | 39.02246 | 12500 ft | 315 kts | 68° |
| 2026-05-07 09:30 | 44.90724 | 39.05111 | 12091 ft | 313 kts | 68° |
| 2026-05-07 09:30 | 44.91510 | 39.07920 | 11691 ft | 311 kts | 68° |
| 2026-05-07 09:30 | 44.92303 | 39.10753 | 11288 ft | 310 kts | 68° |
| 2026-05-07 09:30 | 44.93092 | 39.13570 | 10882 ft | 308 kts | 68° |
| 2026-05-07 09:31 | 44.93878 | 39.16375 | 10480 ft | 307 kts | 68° |
| 2026-05-07 09:31 | 44.94649 | 39.19130 | 10299 ft | 296 kts | 68° |
| 2026-05-07 09:31 | 44.95397 | 39.21809 | 10100 ft | 290 kts | 68° |
| 2026-05-07 09:31 | 44.96134 | 39.24461 | 9939 ft | 291 kts | 68° |
| 2026-05-07 09:32 | 44.96872 | 39.27125 | 9466 ft | 293 kts | 68° |
| 2026-05-07 09:32 | 44.97615 | 39.29800 | 9072 ft | 291 kts | 68° |
| 2026-05-07 09:32 | 44.98383 | 39.32423 | 8637 ft | 291 kts | 62° |
| 2026-05-07 09:32 | 44.99495 | 39.34775 | 8243 ft | 286 kts | 52° |
| 2026-05-07 09:33 | 45.00704 | 39.36999 | 7659 ft | 285 kts | 52° |
| 2026-05-07 09:33 | 45.01905 | 39.39215 | 7093 ft | 283 kts | 52° |
| 2026-05-07 09:33 | 45.03091 | 39.41415 | 6536 ft | 281 kts | 52° |
| 2026-05-07 09:33 | 45.04268 | 39.43604 | 5980 ft | 278 kts | 52° |
| 2026-05-07 09:34 | 45.05428 | 39.45773 | 5448 ft | 275 kts | 52° |
| 2026-05-07 09:34 | 45.06701 | 39.47734 | 4944 ft | 268 kts | 33° |
| 2026-05-07 09:34 | 45.08377 | 39.48697 | 4440 ft | 265 kts | 6° |
| 2026-05-07 09:34 | 45.10153 | 39.48401 | 4133 ft | 250 kts | 337° |
| 2026-05-07 09:35 | 45.11574 | 39.47180 | 4067 ft | 230 kts | 322° |
| 2026-05-07 09:35 | 45.12802 | 39.45869 | 3962 ft | 213 kts | 322° |
| 2026-05-07 09:35 | 45.13943 | 39.44652 | 3874 ft | 196 kts | 322° |
| 2026-05-07 09:35 | 45.14880 | 39.43384 | 3774 ft | 179 kts | 301° |
| 2026-05-07 09:36 | 45.15220 | 39.41719 | 3677 ft | 182 kts | 270° |
| 2026-05-07 09:36 | 45.14874 | 39.39998 | 3405 ft | 185 kts | 237° |
| 2026-05-07 09:36 | 45.14098 | 39.38548 | 3130 ft | 185 kts | 233° |
| 2026-05-07 09:36 | 45.13313 | 39.37105 | 2885 ft | 185 kts | 233° |
| 2026-05-07 09:37 | 45.12542 | 39.35684 | 2613 ft | 185 kts | 234° |
| 2026-05-07 09:37 | 45.11765 | 39.34248 | 2337 ft | 183 kts | 233° |
| 2026-05-07 09:37 | 45.10994 | 39.32821 | 2100 ft | 182 kts | 233° |
| 2026-05-07 09:37 | 45.10226 | 39.31398 | 1873 ft | 182 kts | 232° |
| 2026-05-07 09:38 | 45.09460 | 39.29979 | 1657 ft | 181 kts | 232° |
| 2026-05-07 09:38 | 45.08702 | 39.28575 | 1442 ft | 174 kts | 232° |
| 2026-05-07 09:38 | 45.08011 | 39.27293 | 1251 ft | 154 kts | 232° |
| 2026-05-07 09:38 | 45.07379 | 39.26123 | 1066 ft | 146 kts | 232° |
| 2026-05-07 09:39 | 45.06771 | 39.24998 | 892 ft | 142 kts | 232° |
| 2026-05-07 09:39 | 45.06180 | 39.23905 | 727 ft | 142 kts | 232° |
| 2026-05-07 09:39 | 45.05581 | 39.22798 | 550 ft | 141 kts | 232° |
| 2026-05-07 09:39 | 45.04987 | 39.21700 | 379 ft | 140 kts | 232° |
| 2026-05-07 09:40 | 45.04398 | 39.20609 | 211 ft | 139 kts | 232° |
| 2026-05-07 09:40 | 45.03825 | 39.19553 | 116 ft | 126 kts | 232° |
| 2026-05-07 09:40 | 45.03417 | 39.18811 | 117 ft | 68 kts | 233° |
| 2026-05-07 09:40 | 45.03220 | 39.18429 | 113 ft | 39 kts | 232° |
| 2026-05-07 09:41 | 45.03059 | 39.18140 | 114 ft | 36 kts | 231° |
| 2026-05-07 09:41 | 45.02913 | 39.17874 | 114 ft | 33 kts | 232° |
| 2026-05-07 09:41 | 45.02780 | 39.17631 | 113 ft | 31 kts | 232° |
| 2026-05-07 09:41 | 45.02653 | 39.17395 | 112 ft | 27 kts | 237° |
| 2026-05-07 09:42 | 45.02709 | 39.17218 | 107 ft | 22 kts | 322° |
| 2026-05-07 09:42 | 45.02829 | 39.17085 | 106 ft | 22 kts | 322° |
| 2026-05-07 09:42 | 45.02946 | 39.16956 | 106 ft | 21 kts | 322° |
| 2026-05-07 09:42 | 45.03058 | 39.16833 | 106 ft | 20 kts | 323° |
| 2026-05-07 09:43 | 45.03164 | 39.16718 | 106 ft | 19 kts | 323° |
| 2026-05-07 09:43 | 45.03263 | 39.16612 | 106 ft | 17 kts | 322° |
| 2026-05-07 09:43 | 45.03347 | 39.16520 | 105 ft | 14 kts | 322° |
| 2026-05-07 09:43 | 45.03414 | 39.16447 | 106 ft | 11 kts | 322° |
| 2026-05-07 09:44 | 45.03474 | 39.16381 | 105 ft | 11 kts | 322° |
| 2026-05-07 09:44 | 45.03527 | 39.16322 | 106 ft | 9 kts | 322° |
| 2026-05-07 09:44 | 45.03575 | 39.16269 | 105 ft | 8 kts | 322° |
| 2026-05-07 09:44 | 45.03634 | 39.16207 | 105 ft | 16 kts | 323° |
| 2026-05-07 09:45 | 45.03730 | 39.16079 | 106 ft | 20 kts | 284° |
| 2026-05-07 09:45 | 45.03736 | 39.15873 | 106 ft | 23 kts | 268° |
| 2026-05-07 09:45 | 45.03731 | 39.15649 | 106 ft | 23 kts | 278° |
| 2026-05-07 09:45 | 45.03780 | 39.15442 | 106 ft | 21 kts | 290° |
| 2026-05-07 09:46 | 45.03833 | 39.15231 | 106 ft | 23 kts | 264° |
| 2026-05-07 09:46 | 45.03762 | 39.15030 | 105 ft | 25 kts | 241° |
| 2026-05-07 09:46 | 45.03673 | 39.14802 | 106 ft | 26 kts | 240° |
| 2026-05-07 09:46 | 45.03583 | 39.14575 | 106 ft | 26 kts | 240° |
| 2026-05-07 09:47 | 45.03483 | 39.14346 | 106 ft | 25 kts | 241° |
| 2026-05-07 09:47 | 45.03457 | 39.14201 | 106 ft | 9 kts | 298° |
| 2026-05-07 09:47 | 45.03486 | 39.14174 | 106 ft | 0 kts | 334° |
| 2026-05-07 09:47 | 45.03488 | 39.14173 | 105 ft | 0 kts | 334° |